sensor_id;sensor_type;location;lat;lon;timestamp;P1;durP1;ratioP1;P2;durP2;ratioP2
78410;SDS011;67706;51.074;-1.796;2023-12-07T00:04:03;3.28;;;1.50;;
78410;SDS011;67706;51.074;-1.796;2023-12-07T00:08:58;6.45;;;1.58;;
78410;SDS011;67706;51.074;-1.796;2023-12-07T00:11:26;4.13;;;1.95;;
78410;SDS011;67706;51.074;-1.796;2023-12-07T00:13:52;4.45;;;1.33;;
78410;SDS011;67706;51.074;-1.796;2023-12-07T00:16:19;3.75;;;1.77;;
78410;SDS011;67706;51.074;-1.796;2023-12-07T00:18:45;6.55;;;1.98;;
78410;SDS011;67706;51.074;-1.796;2023-12-07T00:21:12;3.17;;;1.90;;
78410;SDS011;67706;51.074;-1.796;2023-12-07T00:23:39;4.18;;;2.15;;
78410;SDS011;67706;51.074;-1.796;2023-12-07T00:26:07;5.88;;;1.90;;
78410;SDS011;67706;51.074;-1.796;2023-12-07T00:28:34;4.22;;;2.10;;
78410;SDS011;67706;51.074;-1.796;2023-12-07T00:31:00;6.15;;;2.50;;
78410;SDS011;67706;51.074;-1.796;2023-12-07T00:33:27;5.63;;;2.00;;
78410;SDS011;67706;51.074;-1.796;2023-12-07T00:35:54;4.65;;;1.63;;
78410;SDS011;67706;51.074;-1.796;2023-12-07T00:38:21;5.65;;;2.10;;
78410;SDS011;67706;51.074;-1.796;2023-12-07T00:40:47;6.22;;;1.70;;
78410;SDS011;67706;51.074;-1.796;2023-12-07T00:43:16;2.58;;;1.50;;
78410;SDS011;67706;51.074;-1.796;2023-12-07T00:45:43;5.10;;;1.30;;
78410;SDS011;67706;51.074;-1.796;2023-12-07T00:48:10;2.67;;;1.50;;
78410;SDS011;67706;51.074;-1.796;2023-12-07T00:50:36;7.22;;;1.88;;
78410;SDS011;67706;51.074;-1.796;2023-12-07T00:53:03;5.10;;;1.85;;
78410;SDS011;67706;51.074;-1.796;2023-12-07T00:55:30;4.72;;;2.00;;
78410;SDS011;67706;51.074;-1.796;2023-12-07T00:57:56;3.78;;;1.90;;
78410;SDS011;67706;51.074;-1.796;2023-12-07T01:00:26;5.13;;;1.75;;
78410;SDS011;67706;51.074;-1.796;2023-12-07T01:02:53;6.25;;;1.90;;
78410;SDS011;67706;51.074;-1.796;2023-12-07T01:05:20;5.85;;;1.98;;
78410;SDS011;67706;51.074;-1.796;2023-12-07T01:10:13;3.47;;;1.70;;
78410;SDS011;67706;51.074;-1.796;2023-12-07T01:12:40;5.60;;;2.20;;
78410;SDS011;67706;51.074;-1.796;2023-12-07T01:15:07;5.40;;;2.10;;
78410;SDS011;67706;51.074;-1.796;2023-12-07T01:17:35;4.00;;;1.70;;
78410;SDS011;67706;51.074;-1.796;2023-12-07T01:20:03;4.00;;;1.50;;
78410;SDS011;67706;51.074;-1.796;2023-12-07T01:22:32;4.00;;;1.60;;
78410;SDS011;67706;51.074;-1.796;2023-12-07T01:27:25;2.08;;;1.13;;
78410;SDS011;67706;51.074;-1.796;2023-12-07T01:29:52;3.67;;;1.70;;
78410;SDS011;67706;51.074;-1.796;2023-12-07T01:32:19;6.35;;;1.85;;
78410;SDS011;67706;51.074;-1.796;2023-12-07T01:34:47;4.53;;;1.77;;
78410;SDS011;67706;51.074;-1.796;2023-12-07T01:37:13;5.40;;;1.58;;
78410;SDS011;67706;51.074;-1.796;2023-12-07T01:39:41;4.72;;;1.30;;
78410;SDS011;67706;51.074;-1.796;2023-12-07T01:42:08;6.32;;;1.63;;
78410;SDS011;67706;51.074;-1.796;2023-12-07T01:44:36;3.70;;;1.92;;
78410;SDS011;67706;51.074;-1.796;2023-12-07T01:47:03;7.50;;;2.13;;
78410;SDS011;67706;51.074;-1.796;2023-12-07T01:49:31;5.05;;;2.13;;
78410;SDS011;67706;51.074;-1.796;2023-12-07T01:51:59;3.97;;;1.70;;
78410;SDS011;67706;51.074;-1.796;2023-12-07T01:54:27;4.40;;;1.70;;
78410;SDS011;67706;51.074;-1.796;2023-12-07T01:56:54;5.55;;;2.13;;
78410;SDS011;67706;51.074;-1.796;2023-12-07T02:02:43;2.97;;;1.50;;
78410;SDS011;67706;51.074;-1.796;2023-12-07T02:05:11;3.53;;;1.73;;
78410;SDS011;67706;51.074;-1.796;2023-12-07T02:07:40;4.40;;;1.70;;
78410;SDS011;67706;51.074;-1.796;2023-12-07T02:10:07;12.57;;;2.90;;
78410;SDS011;67706;51.074;-1.796;2023-12-07T02:12:34;7.82;;;2.50;;
78410;SDS011;67706;51.074;-1.796;2023-12-07T02:15:02;3.00;;;1.55;;
78410;SDS011;67706;51.074;-1.796;2023-12-07T02:17:31;4.82;;;2.33;;
78410;SDS011;67706;51.074;-1.796;2023-12-07T02:20:03;3.40;;;1.88;;
78410;SDS011;67706;51.074;-1.796;2023-12-07T02:22:37;4.45;;;1.83;;
78410;SDS011;67706;51.074;-1.796;2023-12-07T02:25:10;7.25;;;2.13;;
78410;SDS011;67706;51.074;-1.796;2023-12-07T02:27:39;6.22;;;2.75;;
78410;SDS011;67706;51.074;-1.796;2023-12-07T02:30:07;7.32;;;2.67;;
78410;SDS011;67706;51.074;-1.796;2023-12-07T02:32:36;4.50;;;2.58;;
78410;SDS011;67706;51.074;-1.796;2023-12-07T02:35:03;1.48;;;1.10;;
78410;SDS011;67706;51.074;-1.796;2023-12-07T02:37:33;6.53;;;2.90;;
78410;SDS011;67706;51.074;-1.796;2023-12-07T02:40:04;7.75;;;2.75;;
78410;SDS011;67706;51.074;-1.796;2023-12-07T02:42:35;5.72;;;2.50;;
78410;SDS011;67706;51.074;-1.796;2023-12-07T02:45:05;6.00;;;2.13;;
78410;SDS011;67706;51.074;-1.796;2023-12-07T02:47:32;10.32;;;2.53;;
78410;SDS011;67706;51.074;-1.796;2023-12-07T02:49:59;4.55;;;2.22;;
78410;SDS011;67706;51.074;-1.796;2023-12-07T02:54:52;7.05;;;2.13;;
78410;SDS011;67706;51.074;-1.796;2023-12-07T02:59:45;4.00;;;1.40;;
78410;SDS011;67706;51.074;-1.796;2023-12-07T03:02:13;5.28;;;2.35;;
78410;SDS011;67706;51.074;-1.796;2023-12-07T03:04:40;5.43;;;2.15;;
78410;SDS011;67706;51.074;-1.796;2023-12-07T03:07:07;2.38;;;1.13;;
78410;SDS011;67706;51.074;-1.796;2023-12-07T03:09:33;5.10;;;2.88;;
78410;SDS011;67706;51.074;-1.796;2023-12-07T03:14:26;5.32;;;1.90;;
78410;SDS011;67706;51.074;-1.796;2023-12-07T03:16:53;2.30;;;1.00;;
78410;SDS011;67706;51.074;-1.796;2023-12-07T03:21:48;6.20;;;1.63;;
78410;SDS011;67706;51.074;-1.796;2023-12-07T03:26:41;3.05;;;1.48;;
78410;SDS011;67706;51.074;-1.796;2023-12-07T03:31:34;1.50;;;0.95;;
78410;SDS011;67706;51.074;-1.796;2023-12-07T03:36:28;4.85;;;1.40;;
78410;SDS011;67706;51.074;-1.796;2023-12-07T03:38:55;1.25;;;0.95;;
78410;SDS011;67706;51.074;-1.796;2023-12-07T03:41:22;2.30;;;1.23;;
78410;SDS011;67706;51.074;-1.796;2023-12-07T03:46:14;1.33;;;0.57;;
78410;SDS011;67706;51.074;-1.796;2023-12-07T03:51:07;2.47;;;1.20;;
78410;SDS011;67706;51.074;-1.796;2023-12-07T03:56:02;3.25;;;1.00;;
78410;SDS011;67706;51.074;-1.796;2023-12-07T03:58:29;2.67;;;0.73;;
78410;SDS011;67706;51.074;-1.796;2023-12-07T04:00:55;1.75;;;0.77;;
78410;SDS011;67706;51.074;-1.796;2023-12-07T04:03:22;2.90;;;1.17;;
78410;SDS011;67706;51.074;-1.796;2023-12-07T04:05:49;0.63;;;0.50;;
78410;SDS011;67706;51.074;-1.796;2023-12-07T04:08:15;3.35;;;1.25;;
78410;SDS011;67706;51.074;-1.796;2023-12-07T04:10:43;4.68;;;1.20;;
78410;SDS011;67706;51.074;-1.796;2023-12-07T04:13:10;3.58;;;1.30;;
78410;SDS011;67706;51.074;-1.796;2023-12-07T04:15:37;1.77;;;1.00;;
78410;SDS011;67706;51.074;-1.796;2023-12-07T04:18:03;6.20;;;1.15;;
78410;SDS011;67706;51.074;-1.796;2023-12-07T04:20:30;2.78;;;1.05;;
78410;SDS011;67706;51.074;-1.796;2023-12-07T04:22:57;4.22;;;1.17;;
78410;SDS011;67706;51.074;-1.796;2023-12-07T04:25:23;2.22;;;1.08;;
78410;SDS011;67706;51.074;-1.796;2023-12-07T04:30:18;2.20;;;1.02;;
78410;SDS011;67706;51.074;-1.796;2023-12-07T04:32:45;1.20;;;0.40;;
78410;SDS011;67706;51.074;-1.796;2023-12-07T04:37:38;2.38;;;1.13;;
78410;SDS011;67706;51.074;-1.796;2023-12-07T04:42:32;2.85;;;1.45;;
78410;SDS011;67706;51.074;-1.796;2023-12-07T04:45:00;4.22;;;1.30;;
78410;SDS011;67706;51.074;-1.796;2023-12-07T04:47:26;2.70;;;1.42;;
78410;SDS011;67706;51.074;-1.796;2023-12-07T04:49:53;2.88;;;1.17;;
78410;SDS011;67706;51.074;-1.796;2023-12-07T04:52:20;2.85;;;1.00;;
78410;SDS011;67706;51.074;-1.796;2023-12-07T04:54:46;3.33;;;1.42;;
78410;SDS011;67706;51.074;-1.796;2023-12-07T04:57:13;4.68;;;1.85;;
78410;SDS011;67706;51.074;-1.796;2023-12-07T04:59:40;4.13;;;1.40;;
78410;SDS011;67706;51.074;-1.796;2023-12-07T05:02:08;2.95;;;1.58;;
78410;SDS011;67706;51.074;-1.796;2023-12-07T05:04:35;4.30;;;1.20;;
78410;SDS011;67706;51.074;-1.796;2023-12-07T05:07:01;4.78;;;1.52;;
78410;SDS011;67706;51.074;-1.796;2023-12-07T05:09:29;2.83;;;0.80;;
78410;SDS011;67706;51.074;-1.796;2023-12-07T05:11:56;1.60;;;1.05;;
78410;SDS011;67706;51.074;-1.796;2023-12-07T05:14:23;0.65;;;0.50;;
78410;SDS011;67706;51.074;-1.796;2023-12-07T05:16:50;1.55;;;0.52;;
78410;SDS011;67706;51.074;-1.796;2023-12-07T05:19:19;1.13;;;0.65;;
78410;SDS011;67706;51.074;-1.796;2023-12-07T05:21:46;1.40;;;0.90;;
78410;SDS011;67706;51.074;-1.796;2023-12-07T05:24:13;4.68;;;1.17;;
78410;SDS011;67706;51.074;-1.796;2023-12-07T05:26:40;0.95;;;0.57;;
78410;SDS011;67706;51.074;-1.796;2023-12-07T05:29:07;2.08;;;0.90;;
78410;SDS011;67706;51.074;-1.796;2023-12-07T05:31:35;1.92;;;0.70;;
78410;SDS011;67706;51.074;-1.796;2023-12-07T05:34:02;2.03;;;1.20;;
78410;SDS011;67706;51.074;-1.796;2023-12-07T05:36:30;1.58;;;0.80;;
78410;SDS011;67706;51.074;-1.796;2023-12-07T05:38:56;2.70;;;0.80;;
78410;SDS011;67706;51.074;-1.796;2023-12-07T05:41:23;1.67;;;0.80;;
78410;SDS011;67706;51.074;-1.796;2023-12-07T05:43:50;0.98;;;0.80;;
78410;SDS011;67706;51.074;-1.796;2023-12-07T05:46:17;0.70;;;0.30;;
78410;SDS011;67706;51.074;-1.796;2023-12-07T05:48:44;0.68;;;0.43;;
78410;SDS011;67706;51.074;-1.796;2023-12-07T05:51:12;1.05;;;0.50;;
78410;SDS011;67706;51.074;-1.796;2023-12-07T05:53:40;0.93;;;0.73;;
78410;SDS011;67706;51.074;-1.796;2023-12-07T05:56:07;1.45;;;0.63;;
78410;SDS011;67706;51.074;-1.796;2023-12-07T05:58:34;0.95;;;0.47;;
78410;SDS011;67706;51.074;-1.796;2023-12-07T06:01:01;2.17;;;0.65;;
78410;SDS011;67706;51.074;-1.796;2023-12-07T06:03:28;0.63;;;0.40;;
78410;SDS011;67706;51.074;-1.796;2023-12-07T06:05:55;0.50;;;0.30;;
78410;SDS011;67706;51.074;-1.796;2023-12-07T06:08:22;2.85;;;1.20;;
78410;SDS011;67706;51.074;-1.796;2023-12-07T06:10:50;1.73;;;0.82;;
78410;SDS011;67706;51.074;-1.796;2023-12-07T06:13:16;0.45;;;0.20;;
78410;SDS011;67706;51.074;-1.796;2023-12-07T06:15:43;0.65;;;0.30;;
78410;SDS011;67706;51.074;-1.796;2023-12-07T06:18:10;2.92;;;0.77;;
78410;SDS011;67706;51.074;-1.796;2023-12-07T06:20:36;1.45;;;0.50;;
78410;SDS011;67706;51.074;-1.796;2023-12-07T06:23:03;0.20;;;0.15;;
78410;SDS011;67706;51.074;-1.796;2023-12-07T06:25:30;0.68;;;0.50;;
78410;SDS011;67706;51.074;-1.796;2023-12-07T06:27:58;1.85;;;0.60;;
78410;SDS011;67706;51.074;-1.796;2023-12-07T06:30:25;0.75;;;0.30;;
78410;SDS011;67706;51.074;-1.796;2023-12-07T06:32:51;1.77;;;0.93;;
78410;SDS011;67706;51.074;-1.796;2023-12-07T06:35:18;2.25;;;0.90;;
78410;SDS011;67706;51.074;-1.796;2023-12-07T06:37:46;1.27;;;0.70;;
78410;SDS011;67706;51.074;-1.796;2023-12-07T06:40:13;1.17;;;0.70;;
78410;SDS011;67706;51.074;-1.796;2023-12-07T06:42:40;1.95;;;0.75;;
78410;SDS011;67706;51.074;-1.796;2023-12-07T06:47:36;1.08;;;0.60;;
78410;SDS011;67706;51.074;-1.796;2023-12-07T06:50:03;1.05;;;0.50;;
78410;SDS011;67706;51.074;-1.796;2023-12-07T06:52:33;1.75;;;0.60;;
78410;SDS011;67706;51.074;-1.796;2023-12-07T06:55:00;1.08;;;0.70;;
78410;SDS011;67706;51.074;-1.796;2023-12-07T06:57:26;1.20;;;0.45;;
78410;SDS011;67706;51.074;-1.796;2023-12-07T07:02:21;1.08;;;0.45;;
78410;SDS011;67706;51.074;-1.796;2023-12-07T07:04:48;1.58;;;0.75;;
78410;SDS011;67706;51.074;-1.796;2023-12-07T07:07:14;0.82;;;0.40;;
78410;SDS011;67706;51.074;-1.796;2023-12-07T07:09:41;3.65;;;0.90;;
78410;SDS011;67706;51.074;-1.796;2023-12-07T07:12:08;1.02;;;0.60;;
78410;SDS011;67706;51.074;-1.796;2023-12-07T07:14:35;0.75;;;0.17;;
78410;SDS011;67706;51.074;-1.796;2023-12-07T07:17:02;2.83;;;1.17;;
78410;SDS011;67706;51.074;-1.796;2023-12-07T07:19:30;0.98;;;0.50;;
78410;SDS011;67706;51.074;-1.796;2023-12-07T07:21:57;1.30;;;0.45;;
78410;SDS011;67706;51.074;-1.796;2023-12-07T07:24:24;3.58;;;1.20;;
78410;SDS011;67706;51.074;-1.796;2023-12-07T07:26:50;3.72;;;0.98;;
78410;SDS011;67706;51.074;-1.796;2023-12-07T07:29:17;3.85;;;0.93;;
78410;SDS011;67706;51.074;-1.796;2023-12-07T07:31:44;2.03;;;0.70;;
78410;SDS011;67706;51.074;-1.796;2023-12-07T07:34:11;2.83;;;0.77;;
78410;SDS011;67706;51.074;-1.796;2023-12-07T07:36:39;4.68;;;1.02;;
78410;SDS011;67706;51.074;-1.796;2023-12-07T07:39:06;3.28;;;1.30;;
78410;SDS011;67706;51.074;-1.796;2023-12-07T07:41:34;2.92;;;0.73;;
78410;SDS011;67706;51.074;-1.796;2023-12-07T07:44:01;4.10;;;0.80;;
78410;SDS011;67706;51.074;-1.796;2023-12-07T07:46:27;4.30;;;0.98;;
78410;SDS011;67706;51.074;-1.796;2023-12-07T07:48:54;3.15;;;1.30;;
78410;SDS011;67706;51.074;-1.796;2023-12-07T07:51:20;2.10;;;0.88;;
78410;SDS011;67706;51.074;-1.796;2023-12-07T07:53:49;5.20;;;1.35;;
78410;SDS011;67706;51.074;-1.796;2023-12-07T07:56:16;9.75;;;1.25;;
78410;SDS011;67706;51.074;-1.796;2023-12-07T07:58:42;0.85;;;0.60;;
78410;SDS011;67706;51.074;-1.796;2023-12-07T08:01:09;3.15;;;1.40;;
78410;SDS011;67706;51.074;-1.796;2023-12-07T08:06:02;6.00;;;1.20;;
78410;SDS011;67706;51.074;-1.796;2023-12-07T08:08:29;2.50;;;0.47;;
78410;SDS011;67706;51.074;-1.796;2023-12-07T08:10:57;6.95;;;1.73;;
78410;SDS011;67706;51.074;-1.796;2023-12-07T08:13:24;3.10;;;1.17;;
78410;SDS011;67706;51.074;-1.796;2023-12-07T08:15:51;2.42;;;0.80;;
78410;SDS011;67706;51.074;-1.796;2023-12-07T08:18:17;1.73;;;1.10;;
78410;SDS011;67706;51.074;-1.796;2023-12-07T08:20:44;6.53;;;1.20;;
78410;SDS011;67706;51.074;-1.796;2023-12-07T08:23:11;0.77;;;0.40;;
78410;SDS011;67706;51.074;-1.796;2023-12-07T08:25:38;0.43;;;0.32;;
78410;SDS011;67706;51.074;-1.796;2023-12-07T08:28:07;1.65;;;0.73;;
78410;SDS011;67706;51.074;-1.796;2023-12-07T08:30:34;5.57;;;1.05;;
78410;SDS011;67706;51.074;-1.796;2023-12-07T08:33:01;1.20;;;0.70;;
78410;SDS011;67706;51.074;-1.796;2023-12-07T08:37:54;3.55;;;0.77;;
78410;SDS011;67706;51.074;-1.796;2023-12-07T08:42:47;3.47;;;0.80;;
78410;SDS011;67706;51.074;-1.796;2023-12-07T08:45:16;5.25;;;1.27;;
78410;SDS011;67706;51.074;-1.796;2023-12-07T08:47:45;5.35;;;1.15;;
78410;SDS011;67706;51.074;-1.796;2023-12-07T08:52:38;4.00;;;0.88;;
78410;SDS011;67706;51.074;-1.796;2023-12-07T08:55:05;1.00;;;0.40;;
78410;SDS011;67706;51.074;-1.796;2023-12-07T08:57:32;2.70;;;0.60;;
78410;SDS011;67706;51.074;-1.796;2023-12-07T09:02:27;3.60;;;1.10;;
78410;SDS011;67706;51.074;-1.796;2023-12-07T09:04:53;1.77;;;0.60;;
78410;SDS011;67706;51.074;-1.796;2023-12-07T09:07:20;5.57;;;1.20;;
78410;SDS011;67706;51.074;-1.796;2023-12-07T09:09:47;5.85;;;1.13;;
78410;SDS011;67706;51.074;-1.796;2023-12-07T09:12:13;5.68;;;1.13;;
78410;SDS011;67706;51.074;-1.796;2023-12-07T09:14:42;3.67;;;1.00;;
78410;SDS011;67706;51.074;-1.796;2023-12-07T09:17:09;1.80;;;0.82;;
78410;SDS011;67706;51.074;-1.796;2023-12-07T09:22:03;2.22;;;1.27;;
78410;SDS011;67706;51.074;-1.796;2023-12-07T09:24:30;0.70;;;0.40;;
78410;SDS011;67706;51.074;-1.796;2023-12-07T09:29:23;2.33;;;0.68;;
78410;SDS011;67706;51.074;-1.796;2023-12-07T09:31:50;1.60;;;0.70;;
78410;SDS011;67706;51.074;-1.796;2023-12-07T09:36:45;9.55;;;1.55;;
78410;SDS011;67706;51.074;-1.796;2023-12-07T09:39:12;5.75;;;1.58;;
78410;SDS011;67706;51.074;-1.796;2023-12-07T09:41:41;0.73;;;0.50;;
78410;SDS011;67706;51.074;-1.796;2023-12-07T09:44:11;10.20;;;1.45;;
78410;SDS011;67706;51.074;-1.796;2023-12-07T09:46:38;5.60;;;1.50;;
78410;SDS011;67706;51.074;-1.796;2023-12-07T09:51:31;0.50;;;0.50;;
78410;SDS011;67706;51.074;-1.796;2023-12-07T09:54:00;1.35;;;0.68;;
78410;SDS011;67706;51.074;-1.796;2023-12-07T09:56:31;3.75;;;1.13;;
78410;SDS011;67706;51.074;-1.796;2023-12-07T09:58:57;1.95;;;1.02;;
78410;SDS011;67706;51.074;-1.796;2023-12-07T10:06:42;2.63;;;1.00;;
78410;SDS011;67706;51.074;-1.796;2023-12-07T10:09:10;1.55;;;0.95;;
78410;SDS011;67706;51.074;-1.796;2023-12-07T10:11:38;4.05;;;0.60;;
78410;SDS011;67706;51.074;-1.796;2023-12-07T10:14:05;7.80;;;1.73;;
78410;SDS011;67706;51.074;-1.796;2023-12-07T10:16:32;5.70;;;1.55;;
78410;SDS011;67706;51.074;-1.796;2023-12-07T10:19:09;5.72;;;1.20;;
78410;SDS011;67706;51.074;-1.796;2023-12-07T10:21:39;4.75;;;0.95;;
78410;SDS011;67706;51.074;-1.796;2023-12-07T10:24:07;3.03;;;0.95;;
78410;SDS011;67706;51.074;-1.796;2023-12-07T10:26:36;5.32;;;1.40;;
78410;SDS011;67706;51.074;-1.796;2023-12-07T10:29:04;10.50;;;1.50;;
78410;SDS011;67706;51.074;-1.796;2023-12-07T10:31:31;6.40;;;1.25;;
78410;SDS011;67706;51.074;-1.796;2023-12-07T10:33:58;8.00;;;1.75;;
78410;SDS011;67706;51.074;-1.796;2023-12-07T10:36:26;7.05;;;1.15;;
78410;SDS011;67706;51.074;-1.796;2023-12-07T10:38:53;9.38;;;1.65;;
78410;SDS011;67706;51.074;-1.796;2023-12-07T10:41:20;5.50;;;1.23;;
78410;SDS011;67706;51.074;-1.796;2023-12-07T10:43:51;3.50;;;1.40;;
78410;SDS011;67706;51.074;-1.796;2023-12-07T10:46:19;4.20;;;1.15;;
78410;SDS011;67706;51.074;-1.796;2023-12-07T10:48:46;6.63;;;1.20;;
78410;SDS011;67706;51.074;-1.796;2023-12-07T10:51:17;3.08;;;0.98;;
78410;SDS011;67706;51.074;-1.796;2023-12-07T10:56:24;4.35;;;0.95;;
78410;SDS011;67706;51.074;-1.796;2023-12-07T10:58:57;4.82;;;1.23;;
78410;SDS011;67706;51.074;-1.796;2023-12-07T11:01:25;6.32;;;1.02;;
78410;SDS011;67706;51.074;-1.796;2023-12-07T11:03:52;7.50;;;1.20;;
78410;SDS011;67706;51.074;-1.796;2023-12-07T11:06:19;4.03;;;0.90;;
78410;SDS011;67706;51.074;-1.796;2023-12-07T11:08:46;10.20;;;1.63;;
78410;SDS011;67706;51.074;-1.796;2023-12-07T11:11:20;2.92;;;0.70;;
78410;SDS011;67706;51.074;-1.796;2023-12-07T11:13:52;1.25;;;0.88;;
78410;SDS011;67706;51.074;-1.796;2023-12-07T11:16:29;2.30;;;0.98;;
78410;SDS011;67706;51.074;-1.796;2023-12-07T11:18:57;3.17;;;0.77;;
78410;SDS011;67706;51.074;-1.796;2023-12-07T11:21:24;4.20;;;1.38;;
78410;SDS011;67706;51.074;-1.796;2023-12-07T11:23:53;0.77;;;0.40;;
78410;SDS011;67706;51.074;-1.796;2023-12-07T11:26:20;6.68;;;1.15;;
78410;SDS011;67706;51.074;-1.796;2023-12-07T11:28:48;2.15;;;0.88;;
78410;SDS011;67706;51.074;-1.796;2023-12-07T11:31:15;0.47;;;0.30;;
78410;SDS011;67706;51.074;-1.796;2023-12-07T11:33:44;1.52;;;0.90;;
78410;SDS011;67706;51.074;-1.796;2023-12-07T11:36:13;4.85;;;0.80;;
78410;SDS011;67706;51.074;-1.796;2023-12-07T11:41:37;3.78;;;1.30;;
78410;SDS011;67706;51.074;-1.796;2023-12-07T11:44:09;3.40;;;0.73;;
78410;SDS011;67706;51.074;-1.796;2023-12-07T11:46:37;2.55;;;1.10;;
78410;SDS011;67706;51.074;-1.796;2023-12-07T11:49:05;4.10;;;1.23;;
78410;SDS011;67706;51.074;-1.796;2023-12-07T11:51:35;4.28;;;0.88;;
78410;SDS011;67706;51.074;-1.796;2023-12-07T11:54:02;2.42;;;0.70;;
78410;SDS011;67706;51.074;-1.796;2023-12-07T11:56:29;3.38;;;0.57;;
78410;SDS011;67706;51.074;-1.796;2023-12-07T11:58:56;0.47;;;0.47;;
78410;SDS011;67706;51.074;-1.796;2023-12-07T12:01:24;3.30;;;0.60;;
78410;SDS011;67706;51.074;-1.796;2023-12-07T12:03:53;4.53;;;0.98;;
78410;SDS011;67706;51.074;-1.796;2023-12-07T12:06:22;1.88;;;1.02;;
78410;SDS011;67706;51.074;-1.796;2023-12-07T12:08:49;3.60;;;0.98;;
78410;SDS011;67706;51.074;-1.796;2023-12-07T12:11:17;3.15;;;0.82;;
78410;SDS011;67706;51.074;-1.796;2023-12-07T12:13:44;3.63;;;0.50;;
78410;SDS011;67706;51.074;-1.796;2023-12-07T12:16:11;4.88;;;0.65;;
78410;SDS011;67706;51.074;-1.796;2023-12-07T12:18:38;2.67;;;0.63;;
78410;SDS011;67706;51.074;-1.796;2023-12-07T12:21:06;4.97;;;1.13;;
78410;SDS011;67706;51.074;-1.796;2023-12-07T12:23:36;2.38;;;1.00;;
78410;SDS011;67706;51.074;-1.796;2023-12-07T12:26:04;2.28;;;0.75;;
78410;SDS011;67706;51.074;-1.796;2023-12-07T12:28:32;2.60;;;1.00;;
78410;SDS011;67706;51.074;-1.796;2023-12-07T12:31:03;4.10;;;0.95;;
78410;SDS011;67706;51.074;-1.796;2023-12-07T12:33:30;2.70;;;0.70;;
78410;SDS011;67706;51.074;-1.796;2023-12-07T12:36:01;1.00;;;0.30;;
78410;SDS011;67706;51.074;-1.796;2023-12-07T12:38:30;2.13;;;0.73;;
78410;SDS011;67706;51.074;-1.796;2023-12-07T12:40:58;2.15;;;0.60;;
78410;SDS011;67706;51.074;-1.796;2023-12-07T12:43:25;2.60;;;0.70;;
78410;SDS011;67706;51.074;-1.796;2023-12-07T12:45:53;3.28;;;0.85;;
78410;SDS011;67706;51.074;-1.796;2023-12-07T12:48:19;2.60;;;0.70;;
78410;SDS011;67706;51.074;-1.796;2023-12-07T12:50:46;0.50;;;0.45;;
78410;SDS011;67706;51.074;-1.796;2023-12-07T12:53:13;1.67;;;0.40;;
78410;SDS011;67706;51.074;-1.796;2023-12-07T12:55:41;0.30;;;0.17;;
78410;SDS011;67706;51.074;-1.796;2023-12-07T12:58:09;2.50;;;0.50;;
78410;SDS011;67706;51.074;-1.796;2023-12-07T13:00:37;0.73;;;0.50;;
78410;SDS011;67706;51.074;-1.796;2023-12-07T13:03:05;2.08;;;0.73;;
78410;SDS011;67706;51.074;-1.796;2023-12-07T13:05:32;1.77;;;0.73;;
78410;SDS011;67706;51.074;-1.796;2023-12-07T13:07:59;2.92;;;0.80;;
78410;SDS011;67706;51.074;-1.796;2023-12-07T13:10:26;3.50;;;1.08;;
78410;SDS011;67706;51.074;-1.796;2023-12-07T13:12:53;3.40;;;0.68;;
78410;SDS011;67706;51.074;-1.796;2023-12-07T13:15:22;3.65;;;0.43;;
78410;SDS011;67706;51.074;-1.796;2023-12-07T13:17:50;2.25;;;0.50;;
78410;SDS011;67706;51.074;-1.796;2023-12-07T13:20:17;2.63;;;0.60;;
78410;SDS011;67706;51.074;-1.796;2023-12-07T13:22:44;2.97;;;0.82;;
78410;SDS011;67706;51.074;-1.796;2023-12-07T13:27:39;1.05;;;0.30;;
78410;SDS011;67706;51.074;-1.796;2023-12-07T13:30:08;2.47;;;0.52;;
78410;SDS011;67706;51.074;-1.796;2023-12-07T13:32:36;1.65;;;0.40;;
78410;SDS011;67706;51.074;-1.796;2023-12-07T13:35:03;0.98;;;0.40;;
78410;SDS011;67706;51.074;-1.796;2023-12-07T13:37:31;2.53;;;1.45;;
78410;SDS011;67706;51.074;-1.796;2023-12-07T13:39:58;1.25;;;0.60;;
78410;SDS011;67706;51.074;-1.796;2023-12-07T13:42:25;0.57;;;0.28;;
78410;SDS011;67706;51.074;-1.796;2023-12-07T13:44:53;3.50;;;1.05;;
78410;SDS011;67706;51.074;-1.796;2023-12-07T13:47:22;2.40;;;0.50;;
78410;SDS011;67706;51.074;-1.796;2023-12-07T13:49:55;3.08;;;0.85;;
78410;SDS011;67706;51.074;-1.796;2023-12-07T13:52:22;3.40;;;0.60;;
78410;SDS011;67706;51.074;-1.796;2023-12-07T13:54:49;2.05;;;0.73;;
78410;SDS011;67706;51.074;-1.796;2023-12-07T13:57:16;2.10;;;0.82;;
78410;SDS011;67706;51.074;-1.796;2023-12-07T13:59:43;2.28;;;0.60;;
78410;SDS011;67706;51.074;-1.796;2023-12-07T14:02:09;1.45;;;0.75;;
78410;SDS011;67706;51.074;-1.796;2023-12-07T14:04:37;2.10;;;0.75;;
78410;SDS011;67706;51.074;-1.796;2023-12-07T14:07:09;2.95;;;0.70;;
78410;SDS011;67706;51.074;-1.796;2023-12-07T14:12:03;3.15;;;0.95;;
78410;SDS011;67706;51.074;-1.796;2023-12-07T14:14:30;1.50;;;0.50;;
78410;SDS011;67706;51.074;-1.796;2023-12-07T14:16:57;0.90;;;0.40;;
78410;SDS011;67706;51.074;-1.796;2023-12-07T14:19:24;0.30;;;0.20;;
78410;SDS011;67706;51.074;-1.796;2023-12-07T14:21:51;1.77;;;0.80;;
78410;SDS011;67706;51.074;-1.796;2023-12-07T14:24:19;0.70;;;0.38;;
78410;SDS011;67706;51.074;-1.796;2023-12-07T14:26:46;3.58;;;0.60;;
78410;SDS011;67706;51.074;-1.796;2023-12-07T14:29:14;2.72;;;0.40;;
78410;SDS011;67706;51.074;-1.796;2023-12-07T14:31:43;1.45;;;0.35;;
78410;SDS011;67706;51.074;-1.796;2023-12-07T14:34:10;1.55;;;0.52;;
78410;SDS011;67706;51.074;-1.796;2023-12-07T14:36:38;0.95;;;0.30;;
78410;SDS011;67706;51.074;-1.796;2023-12-07T14:39:06;1.25;;;0.47;;
78410;SDS011;67706;51.074;-1.796;2023-12-07T14:41:34;0.43;;;0.20;;
78410;SDS011;67706;51.074;-1.796;2023-12-07T14:44:01;0.55;;;0.32;;
78410;SDS011;67706;51.074;-1.796;2023-12-07T14:46:28;2.17;;;1.30;;
78410;SDS011;67706;51.074;-1.796;2023-12-07T14:48:55;3.53;;;1.00;;
78410;SDS011;67706;51.074;-1.796;2023-12-07T14:51:21;2.90;;;0.60;;
78410;SDS011;67706;51.074;-1.796;2023-12-07T14:53:48;0.95;;;0.50;;
78410;SDS011;67706;51.074;-1.796;2023-12-07T14:56:15;1.15;;;0.40;;
78410;SDS011;67706;51.074;-1.796;2023-12-07T14:58:43;0.57;;;0.30;;
78410;SDS011;67706;51.074;-1.796;2023-12-07T15:01:09;1.05;;;0.65;;
78410;SDS011;67706;51.074;-1.796;2023-12-07T15:03:36;0.45;;;0.20;;
78410;SDS011;67706;51.074;-1.796;2023-12-07T15:06:03;2.92;;;0.50;;
78410;SDS011;67706;51.074;-1.796;2023-12-07T15:08:30;1.40;;;0.38;;
78410;SDS011;67706;51.074;-1.796;2023-12-07T15:10:56;1.00;;;0.50;;
78410;SDS011;67706;51.074;-1.796;2023-12-07T15:15:51;0.40;;;0.20;;
78410;SDS011;67706;51.074;-1.796;2023-12-07T15:18:18;1.52;;;0.70;;
78410;SDS011;67706;51.074;-1.796;2023-12-07T15:20:45;1.50;;;0.80;;
78410;SDS011;67706;51.074;-1.796;2023-12-07T15:23:11;0.93;;;0.70;;
78410;SDS011;67706;51.074;-1.796;2023-12-07T15:25:38;3.05;;;0.40;;
78410;SDS011;67706;51.074;-1.796;2023-12-07T15:30:31;0.80;;;0.22;;
78410;SDS011;67706;51.074;-1.796;2023-12-07T15:33:01;4.47;;;0.70;;
78410;SDS011;67706;51.074;-1.796;2023-12-07T15:35:29;0.90;;;0.57;;
78410;SDS011;67706;51.074;-1.796;2023-12-07T15:40:23;1.25;;;0.80;;
78410;SDS011;67706;51.074;-1.796;2023-12-07T15:42:50;1.83;;;0.75;;
78410;SDS011;67706;51.074;-1.796;2023-12-07T15:45:16;2.70;;;1.10;;
78410;SDS011;67706;51.074;-1.796;2023-12-07T15:47:43;2.88;;;0.85;;
78410;SDS011;67706;51.074;-1.796;2023-12-07T15:50:11;3.40;;;2.35;;
78410;SDS011;67706;51.074;-1.796;2023-12-07T15:52:40;2.08;;;1.05;;
78410;SDS011;67706;51.074;-1.796;2023-12-07T15:55:07;0.80;;;0.45;;
78410;SDS011;67706;51.074;-1.796;2023-12-07T15:57:35;1.95;;;0.75;;
78410;SDS011;67706;51.074;-1.796;2023-12-07T16:00:02;1.33;;;0.70;;
78410;SDS011;67706;51.074;-1.796;2023-12-07T16:02:30;1.58;;;0.60;;
78410;SDS011;67706;51.074;-1.796;2023-12-07T16:04:57;2.05;;;0.50;;
78410;SDS011;67706;51.074;-1.796;2023-12-07T16:07:25;1.42;;;0.65;;
78410;SDS011;67706;51.074;-1.796;2023-12-07T16:09:51;0.75;;;0.60;;